createdAt,value
2022-10-24T00:01:14.966Z,20.60
2022-10-24T00:03:42.376Z,20.62
2022-10-24T00:06:10.379Z,20.61
2022-10-24T00:08:38.236Z,20.59
2022-10-24T00:11:13.453Z,20.59
2022-10-24T00:13:41.480Z,20.59
2022-10-24T00:16:08.896Z,20.60
2022-10-24T00:18:36.292Z,20.61
2022-10-24T00:21:04.075Z,20.60
2022-10-24T00:23:31.500Z,20.60
2022-10-24T00:26:04.090Z,20.60
2022-10-24T00:28:32.625Z,20.59
2022-10-24T00:31:00.104Z,20.59
2022-10-24T00:33:27.529Z,20.58
2022-10-24T00:35:54.920Z,20.58
2022-10-24T00:38:22.314Z,20.57
2022-10-24T00:40:52.782Z,20.58
2022-10-24T00:43:22.397Z,20.58
2022-10-24T00:45:54.965Z,20.58
2022-10-24T00:48:37.707Z,20.57
2022-10-24T00:51:05.175Z,20.56
2022-10-24T00:53:33.655Z,20.57
2022-10-24T00:56:02.383Z,20.58
2022-10-24T00:58:30.917Z,20.58
2022-10-24T01:00:58.491Z,20.56
2022-10-24T01:03:26.170Z,20.56
2022-10-24T01:05:59.601Z,20.56
2022-10-24T01:08:26.886Z,20.57
2022-10-24T01:11:00.133Z,20.57
2022-10-24T01:13:33.138Z,20.58
2022-10-24T01:16:12.670Z,20.57
2022-10-24T01:18:49.540Z,20.56
2022-10-24T01:21:24.888Z,20.55
2022-10-24T01:24:01.284Z,20.56
2022-10-24T01:26:50.222Z,20.54
2022-10-24T01:29:17.529Z,20.55
2022-10-24T01:31:52.429Z,20.52
2022-10-24T01:34:55.137Z,20.53
2022-10-24T01:37:29.548Z,20.54
2022-10-24T01:39:57.973Z,20.57
2022-10-24T01:42:25.241Z,20.56
2022-10-24T01:44:54.485Z,20.54
2022-10-24T01:47:33.375Z,20.52
2022-10-24T01:50:06.157Z,20.51
2022-10-24T01:52:34.782Z,20.51
2022-10-24T01:55:02.231Z,20.51
2022-10-24T01:57:32.844Z,20.51
2022-10-24T02:00:00.240Z,20.52
2022-10-24T02:02:28.557Z,20.51
2022-10-24T02:05:10.057Z,20.52
2022-10-24T02:07:37.584Z,20.54
2022-10-24T02:10:12.799Z,20.52
2022-10-24T02:12:43.161Z,20.54
2022-10-24T02:15:21.784Z,20.53
2022-10-24T02:17:49.160Z,20.55
2022-10-24T02:20:16.615Z,20.53
2022-10-24T02:23:06.242Z,20.53
2022-10-24T02:25:35.025Z,20.54
2022-10-24T02:28:02.326Z,20.55
2022-10-24T02:30:29.676Z,20.56
2022-10-24T02:32:58.343Z,20.54
2022-10-24T02:35:30.461Z,20.52
2022-10-24T02:38:01.098Z,20.53
2022-10-24T02:40:28.612Z,20.54
2022-10-24T02:42:56.113Z,20.51
2022-10-24T02:45:23.512Z,20.51
2022-10-24T02:47:50.932Z,20.51
2022-10-24T02:50:18.342Z,20.51
2022-10-24T02:52:46.753Z,20.50
2022-10-24T02:55:14.370Z,20.51
2022-10-24T02:57:44.070Z,20.50
2022-10-24T03:00:12.014Z,20.52
2022-10-24T03:02:39.429Z,20.50
2022-10-24T03:05:07.242Z,20.49
2022-10-24T03:07:34.618Z,20.51
2022-10-24T03:10:02.085Z,20.50
2022-10-24T03:12:29.498Z,20.52
2022-10-24T03:14:56.876Z,20.52
2022-10-24T03:17:24.198Z,20.52
2022-10-24T03:19:51.599Z,20.52
2022-10-24T03:22:18.936Z,20.52
2022-10-24T03:24:55.130Z,20.51
2022-10-24T03:27:23.047Z,20.50
2022-10-24T03:29:50.523Z,20.51
2022-10-24T03:32:17.983Z,20.51
2022-10-24T03:34:45.418Z,20.50
2022-10-24T03:37:12.850Z,20.51
2022-10-24T03:39:40.260Z,20.51
2022-10-24T03:42:07.658Z,20.51
2022-10-24T03:44:35.072Z,20.51
2022-10-24T03:47:02.536Z,20.51
2022-10-24T03:49:30.082Z,20.52
2022-10-24T03:51:57.451Z,20.51
2022-10-24T03:54:24.895Z,20.51
2022-10-24T03:56:52.343Z,20.51
2022-10-24T03:59:19.771Z,20.51
2022-10-24T04:01:47.191Z,20.52
2022-10-24T04:04:14.612Z,20.51
2022-10-24T04:06:42.610Z,20.51
2022-10-24T04:09:09.996Z,20.51
2022-10-24T04:11:37.444Z,20.52
2022-10-24T04:14:05.365Z,20.51
2022-10-24T04:16:34.784Z,20.52
2022-10-24T04:19:02.381Z,20.51
2022-10-24T04:21:29.758Z,20.50
2022-10-24T04:23:57.146Z,20.50
2022-10-24T04:26:24.597Z,20.48
2022-10-24T04:28:52.025Z,20.47
2022-10-24T04:31:22.548Z,20.49
2022-10-24T04:33:51.214Z,20.48
2022-10-24T04:36:19.168Z,20.48
2022-10-24T04:38:46.812Z,20.48
2022-10-24T04:41:14.340Z,20.49
2022-10-24T04:43:41.763Z,20.51
2022-10-24T04:46:09.206Z,20.48
2022-10-24T04:48:37.259Z,20.51
2022-10-24T04:51:04.842Z,20.50
2022-10-24T04:53:32.222Z,20.48
2022-10-24T04:56:02.636Z,20.46
2022-10-24T04:58:29.997Z,20.45
2022-10-24T05:00:57.418Z,20.44
2022-10-24T05:03:24.803Z,20.43
2022-10-24T05:05:52.207Z,20.42
2022-10-24T05:08:19.634Z,20.43
2022-10-24T05:10:47.041Z,20.42
2022-10-24T05:13:14.529Z,20.44
2022-10-24T05:15:42.356Z,20.45
2022-10-24T05:18:09.753Z,20.46
2022-10-24T05:20:37.163Z,20.44
2022-10-24T05:23:04.667Z,20.45
2022-10-24T05:25:32.255Z,20.46
2022-10-24T05:27:59.636Z,20.50
2022-10-24T05:30:27.078Z,20.49
2022-10-24T05:32:54.496Z,20.47
2022-10-24T05:35:21.837Z,20.46
2022-10-24T05:37:49.196Z,20.44
2022-10-24T05:40:16.570Z,20.44
2022-10-24T05:42:44.310Z,20.44
2022-10-24T05:45:11.966Z,20.46
2022-10-24T05:47:39.355Z,20.46
2022-10-24T05:50:07.311Z,20.45
2022-10-24T05:52:36.462Z,20.44
2022-10-24T05:55:07.634Z,20.42
2022-10-24T05:57:36.901Z,20.44
2022-10-24T06:00:08.139Z,20.44
2022-10-24T06:02:42.002Z,20.46
2022-10-24T06:05:09.784Z,20.46
2022-10-24T06:07:37.304Z,20.48
2022-10-24T06:10:05.633Z,20.46
2022-10-24T06:12:33.127Z,20.45
2022-10-24T06:15:00.584Z,20.46
2022-10-24T06:17:27.995Z,20.47
2022-10-24T06:19:55.393Z,20.47
2022-10-24T06:22:27.753Z,20.47
2022-10-24T06:24:57.977Z,20.47
2022-10-24T06:27:25.402Z,20.47
2022-10-24T06:29:52.788Z,20.46
2022-10-24T06:32:20.211Z,20.46
2022-10-24T06:34:47.626Z,20.46
2022-10-24T06:37:14.988Z,20.48
2022-10-24T06:39:42.370Z,20.46
2022-10-24T06:42:09.772Z,20.46
2022-10-24T06:44:38.558Z,20.47
2022-10-24T06:47:06.397Z,20.47
2022-10-24T06:49:33.864Z,20.49
2022-10-24T06:52:01.259Z,20.50
2022-10-24T06:54:30.311Z,20.53
2022-10-24T06:56:58.082Z,20.55
2022-10-24T06:59:25.712Z,20.52
2022-10-24T07:01:53.307Z,20.51
2022-10-24T07:04:20.731Z,20.51
2022-10-24T07:06:48.170Z,20.51
2022-10-24T07:09:15.902Z,20.53
2022-10-24T07:11:44.088Z,20.52
2022-10-24T07:14:11.811Z,20.53
2022-10-24T07:16:39.330Z,20.53
2022-10-24T07:19:06.872Z,20.53
2022-10-24T07:21:34.373Z,20.55
2022-10-24T07:24:01.877Z,20.56
2022-10-24T07:26:29.461Z,20.57
2022-10-24T07:31:33.777Z,20.58
2022-10-24T07:34:02.545Z,20.58
2022-10-24T07:36:30.679Z,20.60
2022-10-24T07:38:58.387Z,20.58
2022-10-24T07:41:29.188Z,20.60
2022-10-24T07:43:57.501Z,20.60
2022-10-24T07:46:25.193Z,20.61
2022-10-24T07:48:52.854Z,20.61
2022-10-24T07:51:20.444Z,20.62
2022-10-24T07:53:47.855Z,20.62
2022-10-24T07:56:15.856Z,20.61
2022-10-24T07:58:43.602Z,20.62
2022-10-24T08:01:22.601Z,20.60
2022-10-24T08:03:50.065Z,20.63
2022-10-24T08:06:19.279Z,20.64
2022-10-24T08:08:46.883Z,20.63
2022-10-24T08:11:16.544Z,20.63
2022-10-24T08:13:44.083Z,20.64
2022-10-24T08:16:12.607Z,20.65
2022-10-24T08:18:40.170Z,20.65
2022-10-24T08:21:09.186Z,20.65
2022-10-24T08:23:37.955Z,20.65
2022-10-24T08:26:11.828Z,20.63
2022-10-24T08:28:39.367Z,20.64
2022-10-24T08:31:17.422Z,20.64
2022-10-24T08:33:45.700Z,20.66
2022-10-24T08:36:24.798Z,20.63
2022-10-24T08:38:52.207Z,20.66
2022-10-24T08:41:25.332Z,20.65
2022-10-24T08:43:53.721Z,20.66
2022-10-24T08:46:34.830Z,20.65
2022-10-24T08:49:46.437Z,20.65
2022-10-24T08:52:27.630Z,20.66
2022-10-24T08:54:55.648Z,20.67
2022-10-24T08:57:25.436Z,20.67
2022-10-24T08:59:54.188Z,20.66
2022-10-24T09:02:24.096Z,20.66
2022-10-24T09:04:56.427Z,20.67
2022-10-24T09:09:57.056Z,20.67
2022-10-24T09:12:26.283Z,20.68
2022-10-24T09:14:56.811Z,20.68
2022-10-24T09:17:28.514Z,20.69
2022-10-24T09:20:02.842Z,20.70
2022-10-24T09:22:32.423Z,20.70
2022-10-24T09:25:02.291Z,20.70
2022-10-24T09:27:32.355Z,20.70
2022-10-24T09:29:59.840Z,20.70
2022-10-24T09:32:31.461Z,20.71
2022-10-24T09:35:06.393Z,20.70
2022-10-24T09:37:44.407Z,20.70
2022-10-24T09:40:25.390Z,20.69
2022-10-24T09:43:17.341Z,20.69
2022-10-24T09:46:04.036Z,20.70
2022-10-24T09:48:49.013Z,20.71
2022-10-24T09:51:25.403Z,20.69
2022-10-24T09:54:05.376Z,20.67
2022-10-24T09:56:34.952Z,20.66
2022-10-24T09:59:37.807Z,20.67
2022-10-24T10:02:34.582Z,20.70
2022-10-24T10:05:04.936Z,20.70
2022-10-24T10:07:37.463Z,20.69
2022-10-24T10:10:22.364Z,20.71
2022-10-24T10:13:09.697Z,20.70
2022-10-24T10:15:39.790Z,20.71
2022-10-24T10:18:29.444Z,20.69
2022-10-24T10:21:09.605Z,20.72
2022-10-24T10:23:39.147Z,20.72
2022-10-24T10:26:18.388Z,20.72
2022-10-24T10:29:05.546Z,20.72
2022-10-24T10:31:40.458Z,20.72
2022-10-24T10:34:35.829Z,20.73
2022-10-24T10:37:09.249Z,20.72
2022-10-24T10:40:14.574Z,20.72
2022-10-24T10:42:44.885Z,20.78
2022-10-24T10:45:30.841Z,20.77
2022-10-24T10:48:15.716Z,20.75
2022-10-24T10:50:49.106Z,20.74
2022-10-24T10:53:35.009Z,20.73
2022-10-24T10:56:23.303Z,20.73
2022-10-24T10:59:02.540Z,20.74
2022-10-24T11:01:49.744Z,20.74
2022-10-24T11:04:41.690Z,20.74
2022-10-24T11:07:25.368Z,20.73
2022-10-24T11:10:13.119Z,20.74
2022-10-24T11:12:44.084Z,20.76
2022-10-24T11:15:21.704Z,20.75
2022-10-24T11:18:04.528Z,20.75
2022-10-24T11:20:34.872Z,20.76
2022-10-24T11:23:19.942Z,20.75
2022-10-24T11:25:52.593Z,20.75
2022-10-24T11:28:41.450Z,20.74
2022-10-24T11:31:13.558Z,20.77
2022-10-24T11:33:53.738Z,20.76
2022-10-24T11:36:26.109Z,20.77
2022-10-24T11:39:24.135Z,20.76
2022-10-24T11:42:28.994Z,20.76
2022-10-24T11:45:53.692Z,20.77
2022-10-24T11:48:36.034Z,20.77
2022-10-24T11:51:21.991Z,20.75
2022-10-24T11:53:58.589Z,20.77
2022-10-24T11:56:35.035Z,20.75
2022-10-24T11:59:06.666Z,20.76
2022-10-24T12:02:13.029Z,20.75
2022-10-24T12:05:01.606Z,20.77
2022-10-24T12:07:40.562Z,20.77
2022-10-24T12:10:49.324Z,20.77
2022-10-24T12:13:50.720Z,20.75
2022-10-24T12:16:21.177Z,20.76
2022-10-24T12:18:52.479Z,20.76
2022-10-24T12:21:25.880Z,20.76
2022-10-24T12:24:00.097Z,20.77
2022-10-24T12:26:31.222Z,20.78
2022-10-24T12:29:02.635Z,20.79
2022-10-24T12:31:33.980Z,20.78
2022-10-24T12:34:19.760Z,20.76
2022-10-24T12:37:09.608Z,20.76
2022-10-24T12:39:47.156Z,20.76
2022-10-24T12:42:24.282Z,20.77
2022-10-24T12:44:59.981Z,20.78
2022-10-24T12:47:31.239Z,20.79
2022-10-24T12:50:00.005Z,20.78
2022-10-24T12:52:33.380Z,20.78
2022-10-24T12:55:00.758Z,20.78
2022-10-24T12:57:37.121Z,20.77
2022-10-24T13:00:19.981Z,20.78
2022-10-24T13:03:04.726Z,20.78
2022-10-24T13:05:56.918Z,20.78
2022-10-24T13:08:48.361Z,20.78
2022-10-24T13:11:46.402Z,20.77
2022-10-24T13:14:25.851Z,20.78
2022-10-24T13:17:08.237Z,20.77
2022-10-24T13:19:35.631Z,20.77
2022-10-24T13:22:03.055Z,20.77
2022-10-24T13:24:35.533Z,20.77
2022-10-24T13:27:09.028Z,20.77
2022-10-24T13:29:38.858Z,20.78
2022-10-24T13:32:06.083Z,20.79
2022-10-24T13:34:42.190Z,20.78
2022-10-24T13:37:09.543Z,20.77
2022-10-24T13:39:57.386Z,20.77
2022-10-24T13:42:36.361Z,20.78
2022-10-24T13:45:23.631Z,20.79
2022-10-24T13:47:54.160Z,20.79
2022-10-24T13:50:29.947Z,20.79
2022-10-24T13:53:28.280Z,20.77
2022-10-24T13:56:03.634Z,20.78
2022-10-24T13:58:39.928Z,20.79
2022-10-24T14:01:20.155Z,20.79
2022-10-24T14:03:48.020Z,20.78
2022-10-24T14:06:15.395Z,20.79
2022-10-24T14:08:59.710Z,20.78
2022-10-24T14:11:31.695Z,20.81
2022-10-24T14:14:03.995Z,20.80
2022-10-24T14:16:35.531Z,20.79
2022-10-24T14:19:17.584Z,20.79
2022-10-24T14:21:47.439Z,20.83
2022-10-24T14:24:19.398Z,20.83
2022-10-24T14:26:47.150Z,20.80
2022-10-24T14:29:25.442Z,20.78
2022-10-24T14:32:00.842Z,20.79
2022-10-24T14:34:30.418Z,20.79
2022-10-24T14:37:02.468Z,20.80
2022-10-24T14:39:29.877Z,20.80
2022-10-24T14:41:59.689Z,20.80
2022-10-24T14:44:27.113Z,20.79
2022-10-24T14:47:14.693Z,20.79
2022-10-24T14:49:42.088Z,20.81
2022-10-24T14:52:26.629Z,20.78
2022-10-24T14:55:03.019Z,20.80
2022-10-24T14:57:31.792Z,20.81
2022-10-24T15:00:03.064Z,20.80
2022-10-24T15:02:32.027Z,20.80
2022-10-24T15:05:24.553Z,20.79
2022-10-24T15:08:20.362Z,20.80
2022-10-24T15:10:45.072Z,20.82
2022-10-24T15:13:13.585Z,20.81
2022-10-24T15:15:43.937Z,20.80
2022-10-24T15:18:24.384Z,20.79
2022-10-24T15:20:53.879Z,20.80
2022-10-24T15:23:37.968Z,20.80
2022-10-24T15:26:24.120Z,20.79
2022-10-24T15:28:54.389Z,20.80
2022-10-24T15:31:22.249Z,20.80
2022-10-24T15:33:49.638Z,20.80
2022-10-24T15:36:23.824Z,20.79
2022-10-24T15:38:55.790Z,20.79
2022-10-24T15:41:23.698Z,20.79
2022-10-24T15:43:51.089Z,20.80
2022-10-24T15:46:18.515Z,20.82
2022-10-24T15:48:45.959Z,20.82
2022-10-24T15:51:17.997Z,20.80
2022-10-24T15:53:45.609Z,20.80
2022-10-24T15:56:13.020Z,20.82
2022-10-24T15:58:40.623Z,20.82
2022-10-24T16:01:30.290Z,20.80
2022-10-24T16:03:58.178Z,20.82
2022-10-24T16:06:26.045Z,20.81
2022-10-24T16:08:53.560Z,20.80
2022-10-24T16:11:21.040Z,20.80
2022-10-24T16:13:48.665Z,20.80
2022-10-24T16:16:16.105Z,20.81
2022-10-24T16:18:43.620Z,20.80
2022-10-24T16:21:16.473Z,20.80
2022-10-24T16:23:44.587Z,20.81
2022-10-24T16:26:12.036Z,20.79
2022-10-24T16:28:39.515Z,20.80
2022-10-24T16:31:07.043Z,20.80
2022-10-24T16:33:34.434Z,20.80
2022-10-24T16:36:01.865Z,20.81
2022-10-24T16:38:31.492Z,20.81
2022-10-24T16:41:00.735Z,20.81
2022-10-24T16:43:28.197Z,20.81
2022-10-24T16:45:59.632Z,20.79
2022-10-24T16:48:27.167Z,20.80
2022-10-24T16:50:55.422Z,20.80
2022-10-24T16:53:24.070Z,20.82
2022-10-24T16:55:52.655Z,20.80
2022-10-24T16:58:20.227Z,20.80
2022-10-24T17:00:47.805Z,20.80
2022-10-24T17:03:15.430Z,20.81
2022-10-24T17:05:49.198Z,20.80
2022-10-24T17:08:17.529Z,20.82
2022-10-24T17:10:44.978Z,20.82
2022-10-24T17:13:12.390Z,20.82
2022-10-24T17:15:39.889Z,20.83
2022-10-24T17:18:09.028Z,20.82
2022-10-24T17:20:36.499Z,20.82
2022-10-24T17:23:06.369Z,20.82
2022-10-24T17:25:34.273Z,20.82
2022-10-24T17:28:01.765Z,20.82
2022-10-24T17:30:29.799Z,20.82
2022-10-24T17:32:57.437Z,20.83
2022-10-24T17:35:25.308Z,20.81
2022-10-24T17:38:13.865Z,20.80
2022-10-24T17:40:45.632Z,20.81
2022-10-24T17:43:21.427Z,20.80
2022-10-24T17:45:49.411Z,20.81
2022-10-24T17:48:17.962Z,20.80
2022-10-24T17:50:45.338Z,20.81
2022-10-24T17:53:13.623Z,20.80
2022-10-24T17:55:46.306Z,20.82
2022-10-24T17:58:14.791Z,20.82
2022-10-24T18:00:42.888Z,20.82
2022-10-24T18:03:10.379Z,20.82
2022-10-24T18:05:40.352Z,20.82
2022-10-24T18:08:08.669Z,20.80
2022-10-24T18:10:39.480Z,20.81
2022-10-24T18:13:07.119Z,20.81
2022-10-24T18:15:35.164Z,20.83
2022-10-24T18:18:02.580Z,20.85
2022-10-24T18:20:30.075Z,20.91
2022-10-24T18:22:57.875Z,20.96
2022-10-24T18:25:25.324Z,20.95
2022-10-24T18:27:52.738Z,20.95
2022-10-24T18:30:20.209Z,20.93
2022-10-24T18:32:47.950Z,20.92
2022-10-24T18:35:15.787Z,20.92
2022-10-24T18:37:43.278Z,20.89
2022-10-24T18:40:11.455Z,20.89
2022-10-24T18:42:54.852Z,20.88
2022-10-24T18:45:24.211Z,20.89
2022-10-24T18:47:52.227Z,20.88
2022-10-24T18:50:21.561Z,20.85
2022-10-24T18:52:48.954Z,20.87
2022-10-24T18:55:20.599Z,20.86
2022-10-24T18:57:48.786Z,20.86
2022-10-24T19:00:24.113Z,20.84
2022-10-24T19:03:23.504Z,20.84
2022-10-24T19:05:58.119Z,20.86
2022-10-24T19:08:26.087Z,20.85
2022-10-24T19:10:55.987Z,20.85
2022-10-24T19:13:26.755Z,20.86
2022-10-24T19:16:00.030Z,20.83
2022-10-24T19:18:28.338Z,20.84
2022-10-24T19:20:55.748Z,20.85
2022-10-24T19:23:24.738Z,20.85
2022-10-24T19:25:52.253Z,20.84
2022-10-24T19:28:20.264Z,20.84
2022-10-24T19:30:47.790Z,20.82
2022-10-24T19:33:15.360Z,20.83
2022-10-24T19:35:47.153Z,20.82
2022-10-24T19:38:15.554Z,20.83
2022-10-24T19:40:51.521Z,20.82
2022-10-24T19:43:19.796Z,20.82
2022-10-24T19:45:54.930Z,20.81
2022-10-24T19:48:35.048Z,20.84
2022-10-24T19:51:06.652Z,20.82
2022-10-24T19:53:35.240Z,20.84
2022-10-24T19:56:06.907Z,20.80
2022-10-24T19:58:34.470Z,20.82
2022-10-24T20:01:09.266Z,20.81
2022-10-24T20:03:37.640Z,20.83
2022-10-24T20:06:05.494Z,20.83
2022-10-24T20:08:33.105Z,20.83
2022-10-24T20:11:00.610Z,20.84
2022-10-24T20:13:27.997Z,20.79
2022-10-24T20:16:04.368Z,20.80
2022-10-24T20:18:32.723Z,20.80
2022-10-24T20:21:01.939Z,20.81
2022-10-24T20:23:29.354Z,20.81
2022-10-24T20:25:59.182Z,20.80
2022-10-24T20:28:26.725Z,20.81
2022-10-24T20:30:54.205Z,20.82
2022-10-24T20:33:21.601Z,20.81
2022-10-24T20:35:49.197Z,20.82
2022-10-24T20:38:16.745Z,20.79
2022-10-24T20:40:44.133Z,20.80
2022-10-24T20:43:11.516Z,20.79
2022-10-24T20:45:40.039Z,20.79
2022-10-24T20:48:07.609Z,20.78
2022-10-24T20:50:37.495Z,20.79
2022-10-24T20:53:04.925Z,20.79
2022-10-24T20:55:43.919Z,20.79
2022-10-24T20:58:14.680Z,20.81
2022-10-24T21:03:16.173Z,20.78
2022-10-24T21:05:43.664Z,20.78
2022-10-24T21:08:11.072Z,20.78
2022-10-24T21:10:38.452Z,20.78
2022-10-24T21:13:05.846Z,20.79
2022-10-24T21:15:33.260Z,20.78
2022-10-24T21:18:00.862Z,20.78
2022-10-24T21:20:28.277Z,20.78
2022-10-24T21:22:55.701Z,20.78
2022-10-24T21:25:23.117Z,20.79
2022-10-24T21:27:50.503Z,20.78
2022-10-24T21:30:17.986Z,20.78
2022-10-24T21:32:45.332Z,20.80
2022-10-24T21:35:12.655Z,20.79
2022-10-24T21:37:40.025Z,20.79
2022-10-24T21:40:07.779Z,20.77
2022-10-24T21:42:35.195Z,20.78
2022-10-24T21:45:02.721Z,20.77
2022-10-24T21:47:30.280Z,20.78
2022-10-24T21:49:57.639Z,20.76
2022-10-24T21:52:25.026Z,20.78
2022-10-24T21:54:52.478Z,20.79
2022-10-24T21:57:19.882Z,20.79
2022-10-24T21:59:47.268Z,20.78
2022-10-24T22:02:14.753Z,20.78
2022-10-24T22:04:42.278Z,20.78
2022-10-24T22:07:09.797Z,20.78
2022-10-24T22:09:37.150Z,20.77
2022-10-24T22:12:04.841Z,20.78
2022-10-24T22:14:32.333Z,20.77
2022-10-24T22:16:59.740Z,20.79
2022-10-24T22:19:27.156Z,20.78
2022-10-24T22:21:54.565Z,20.77
2022-10-24T22:24:23.133Z,20.75
2022-10-24T22:26:50.813Z,20.76
2022-10-24T22:29:20.143Z,20.75
2022-10-24T22:31:48.513Z,20.77
2022-10-24T22:34:20.555Z,20.77
2022-10-24T22:37:13.117Z,20.78
2022-10-24T22:39:40.957Z,20.78
2022-10-24T22:42:17.571Z,20.76
2022-10-24T22:44:49.847Z,20.76
2022-10-24T22:47:29.673Z,20.76
2022-10-24T22:50:23.195Z,20.76
2022-10-24T22:52:50.899Z,20.78
2022-10-24T22:56:02.912Z,20.77
2022-10-24T22:58:30.524Z,20.79
2022-10-24T23:01:04.039Z,20.77
2022-10-24T23:03:54.858Z,20.75
2022-10-24T23:06:44.438Z,20.74
2022-10-24T23:09:11.869Z,20.76
2022-10-24T23:11:42.184Z,20.76
2022-10-24T23:14:10.621Z,20.76
2022-10-24T23:16:59.251Z,20.76
2022-10-24T23:19:28.824Z,20.77
2022-10-24T23:22:11.947Z,20.76
2022-10-24T23:24:39.555Z,20.78
2022-10-24T23:27:12.719Z,20.77
2022-10-24T23:29:44.553Z,20.77
2022-10-24T23:32:26.214Z,20.76
2022-10-24T23:34:54.296Z,20.77
2022-10-24T23:37:23.977Z,20.76
2022-10-24T23:39:51.716Z,20.76
2022-10-24T23:42:19.454Z,20.76
2022-10-24T23:44:47.069Z,20.76
2022-10-24T23:47:17.315Z,20.77
2022-10-24T23:49:48.318Z,20.77
2022-10-24T23:52:21.290Z,20.77
2022-10-24T23:54:51.865Z,20.77
2022-10-24T23:57:19.769Z,20.77
2022-10-24T23:59:47.163Z,20.77
